Saltillo, Texas
Current Conditions -  °F | °C
As of 4:35 PM on Wednesday 22 Oct 2014 (Local Time) from KSLR Reporting Station
Clear Clear  
Wind Chill: 79°   Ceiling: Unl
Heat Index: 79°   Visibility: 10mi
Dew Point: 52°   Wind: 10mph
Humidity: 39%   Direction: 100°E
Pressure: 30.1"   Gusts: NA
Location:  33.18°N, 95.33°W
Report Text: KSLR 222135Z AUTO 10009KT 10SM CLR 26/11 A3010 RMK AO2 T02600112
Loading
Personal Weather Stations






























Interactive Weather Map New forecast layout! Learn more

10-Day Weather Forecast

Advertisements
Track Severe Weather on mobile